sensor_id;sensor_type;location;lat;lon;timestamp;temperature;humidity
62476;DHT22;50739;45.670;11.936;2023-05-27T00:04:10;21.07;75.48
62476;DHT22;50739;45.670;11.936;2023-05-27T00:09:12;20.86;76.33
62476;DHT22;50739;45.670;11.936;2023-05-27T00:14:15;21.00;76.04
62476;DHT22;50739;45.670;11.936;2023-05-27T00:19:19;20.69;77.21
62476;DHT22;50739;45.670;11.936;2023-05-27T00:24:22;20.75;78.28
62476;DHT22;50739;45.670;11.936;2023-05-27T00:29:24;20.86;77.42
62476;DHT22;50739;45.670;11.936;2023-05-27T00:34:28;20.92;77.46
62476;DHT22;50739;45.670;11.936;2023-05-27T00:39:30;20.83;78.35
62476;DHT22;50739;45.670;11.936;2023-05-27T00:44:33;20.72;79.55
62476;DHT22;50739;45.670;11.936;2023-05-27T00:49:38;20.73;80.44
62476;DHT22;50739;45.670;11.936;2023-05-27T00:54:40;20.82;80.90
62476;DHT22;50739;45.670;11.936;2023-05-27T00:59:43;20.96;81.03
62476;DHT22;50739;45.670;11.936;2023-05-27T01:04:47;20.68;83.85
62476;DHT22;50739;45.670;11.936;2023-05-27T01:09:55;20.52;84.39
62476;DHT22;50739;45.670;11.936;2023-05-27T01:14:57;20.52;85.83
62476;DHT22;50739;45.670;11.936;2023-05-27T01:20:01;20.48;86.15
62476;DHT22;50739;45.670;11.936;2023-05-27T01:25:08;20.31;86.08
62476;DHT22;50739;45.670;11.936;2023-05-27T01:30:11;20.21;86.60
62476;DHT22;50739;45.670;11.936;2023-05-27T01:35:17;20.27;86.34
62476;DHT22;50739;45.670;11.936;2023-05-27T01:40:26;20.35;86.83
62476;DHT22;50739;45.670;11.936;2023-05-27T01:45:29;20.35;85.93
62476;DHT22;50739;45.670;11.936;2023-05-27T01:50:32;20.45;84.75
62476;DHT22;50739;45.670;11.936;2023-05-27T01:55:36;20.38;85.34
62476;DHT22;50739;45.670;11.936;2023-05-27T02:00:38;20.41;84.35
62476;DHT22;50739;45.670;11.936;2023-05-27T02:05:41;20.40;84.52
62476;DHT22;50739;45.670;11.936;2023-05-27T02:10:45;20.17;86.08
62476;DHT22;50739;45.670;11.936;2023-05-27T02:15:47;20.28;85.00
62476;DHT22;50739;45.670;11.936;2023-05-27T02:20:49;20.06;84.51
62476;DHT22;50739;45.670;11.936;2023-05-27T02:25:53;19.82;85.04
62476;DHT22;50739;45.670;11.936;2023-05-27T02:30:56;20.12;83.77
62476;DHT22;50739;45.670;11.936;2023-05-27T02:35:59;19.92;83.61
62476;DHT22;50739;45.670;11.936;2023-05-27T02:41:03;19.82;85.16
62476;DHT22;50739;45.670;11.936;2023-05-27T02:46:05;19.86;85.25
62476;DHT22;50739;45.670;11.936;2023-05-27T02:51:07;19.86;84.99
62476;DHT22;50739;45.670;11.936;2023-05-27T02:56:11;19.82;87.62
62476;DHT22;50739;45.670;11.936;2023-05-27T03:01:13;19.72;85.12
62476;DHT22;50739;45.670;11.936;2023-05-27T03:06:16;19.75;86.37
62476;DHT22;50739;45.670;11.936;2023-05-27T03:11:20;19.54;86.74
62476;DHT22;50739;45.670;11.936;2023-05-27T03:16:22;19.42;85.94
62476;DHT22;50739;45.670;11.936;2023-05-27T03:21:26;19.45;85.45
62476;DHT22;50739;45.670;11.936;2023-05-27T03:26:30;19.45;85.95
62476;DHT22;50739;45.670;11.936;2023-05-27T03:31:34;19.54;86.72
62476;DHT22;50739;45.670;11.936;2023-05-27T03:36:36;19.62;84.86
62476;DHT22;50739;45.670;11.936;2023-05-27T03:41:41;19.63;84.75
62476;DHT22;50739;45.670;11.936;2023-05-27T03:46:43;19.68;85.49
62476;DHT22;50739;45.670;11.936;2023-05-27T03:51:46;19.63;84.19
62476;DHT22;50739;45.670;11.936;2023-05-27T03:56:50;19.69;85.33
62476;DHT22;50739;45.670;11.936;2023-05-27T04:01:52;19.62;84.52
62476;DHT22;50739;45.670;11.936;2023-05-27T04:06:55;19.61;84.68
62476;DHT22;50739;45.670;11.936;2023-05-27T04:11:59;19.55;85.40
62476;DHT22;50739;45.670;11.936;2023-05-27T04:17:01;19.49;84.69
62476;DHT22;50739;45.670;11.936;2023-05-27T04:22:04;19.47;84.54
62476;DHT22;50739;45.670;11.936;2023-05-27T04:27:08;19.49;85.05
62476;DHT22;50739;45.670;11.936;2023-05-27T04:32:10;19.49;85.25
62476;DHT22;50739;45.670;11.936;2023-05-27T04:37:13;19.57;83.60
62476;DHT22;50739;45.670;11.936;2023-05-27T04:42:19;19.76;84.67
62476;DHT22;50739;45.670;11.936;2023-05-27T04:47:21;19.85;84.53
62476;DHT22;50739;45.670;11.936;2023-05-27T04:52:23;19.96;85.93
62476;DHT22;50739;45.670;11.936;2023-05-27T04:57:27;19.94;85.64
62476;DHT22;50739;45.670;11.936;2023-05-27T05:02:30;20.01;85.98
62476;DHT22;50739;45.670;11.936;2023-05-27T05:07:35;20.16;86.63
62476;DHT22;50739;45.670;11.936;2023-05-27T05:12:40;20.23;85.96
62476;DHT22;50739;45.670;11.936;2023-05-27T05:17:42;20.41;85.74
62476;DHT22;50739;45.670;11.936;2023-05-27T05:22:44;20.54;85.90
62476;DHT22;50739;45.670;11.936;2023-05-27T05:27:48;20.61;86.15
62476;DHT22;50739;45.670;11.936;2023-05-27T05:32:50;20.69;84.95
62476;DHT22;50739;45.670;11.936;2023-05-27T05:37:53;20.72;82.81
62476;DHT22;50739;45.670;11.936;2023-05-27T05:42:56;20.73;84.16
62476;DHT22;50739;45.670;11.936;2023-05-27T05:47:59;20.82;83.29
62476;DHT22;50739;45.670;11.936;2023-05-27T05:53:01;21.00;77.92
62476;DHT22;50739;45.670;11.936;2023-05-27T05:58:05;21.13;77.41
62476;DHT22;50739;45.670;11.936;2023-05-27T06:03:07;21.37;76.17
62476;DHT22;50739;45.670;11.936;2023-05-27T06:08:09;21.47;70.91
62476;DHT22;50739;45.670;11.936;2023-05-27T06:13:13;21.57;70.41
62476;DHT22;50739;45.670;11.936;2023-05-27T06:18:15;21.69;70.07
62476;DHT22;50739;45.670;11.936;2023-05-27T06:23:18;21.79;71.54
62476;DHT22;50739;45.670;11.936;2023-05-27T06:28:21;21.82;69.45
62476;DHT22;50739;45.670;11.936;2023-05-27T06:33:24;21.88;67.49
62476;DHT22;50739;45.670;11.936;2023-05-27T06:38:26;21.88;68.44
62476;DHT22;50739;45.670;11.936;2023-05-27T06:43:30;21.81;69.26
62476;DHT22;50739;45.670;11.936;2023-05-27T06:48:32;21.96;70.37
62476;DHT22;50739;45.670;11.936;2023-05-27T06:53:34;21.86;69.41
62476;DHT22;50739;45.670;11.936;2023-05-27T06:58:39;21.91;69.38
62476;DHT22;50739;45.670;11.936;2023-05-27T07:03:42;21.93;69.87
62476;DHT22;50739;45.670;11.936;2023-05-27T07:08:44;21.83;70.20
62476;DHT22;50739;45.670;11.936;2023-05-27T07:13:48;21.83;68.91
62476;DHT22;50739;45.670;11.936;2023-05-27T07:18:50;21.95;68.35
62476;DHT22;50739;45.670;11.936;2023-05-27T07:23:52;21.92;68.25
62476;DHT22;50739;45.670;11.936;2023-05-27T07:28:56;21.99;68.04
62476;DHT22;50739;45.670;11.936;2023-05-27T07:33:59;22.09;67.72
62476;DHT22;50739;45.670;11.936;2023-05-27T07:39:01;22.09;68.28
62476;DHT22;50739;45.670;11.936;2023-05-27T07:44:05;22.24;68.76
62476;DHT22;50739;45.670;11.936;2023-05-27T07:49:07;22.29;68.85
62476;DHT22;50739;45.670;11.936;2023-05-27T07:54:09;22.51;69.97
62476;DHT22;50739;45.670;11.936;2023-05-27T07:59:13;22.51;68.24
62476;DHT22;50739;45.670;11.936;2023-05-27T08:04:16;22.51;68.10
62476;DHT22;50739;45.670;11.936;2023-05-27T08:09:18;22.69;67.30
62476;DHT22;50739;45.670;11.936;2023-05-27T08:14:22;22.71;69.23
62476;DHT22;50739;45.670;11.936;2023-05-27T08:19:25;22.81;67.78
62476;DHT22;50739;45.670;11.936;2023-05-27T08:24:28;22.85;67.84
62476;DHT22;50739;45.670;11.936;2023-05-27T08:29:33;22.90;66.41
62476;DHT22;50739;45.670;11.936;2023-05-27T08:34:35;22.91;67.34
62476;DHT22;50739;45.670;11.936;2023-05-27T08:39:38;23.01;68.96
62476;DHT22;50739;45.670;11.936;2023-05-27T08:44:42;23.19;67.93
62476;DHT22;50739;45.670;11.936;2023-05-27T08:49:44;23.33;67.51
62476;DHT22;50739;45.670;11.936;2023-05-27T08:54:47;23.54;67.66
62476;DHT22;50739;45.670;11.936;2023-05-27T08:59:52;23.77;66.47
62476;DHT22;50739;45.670;11.936;2023-05-27T09:04:55;23.81;66.72
62476;DHT22;50739;45.670;11.936;2023-05-27T09:09:57;23.91;65.92
62476;DHT22;50739;45.670;11.936;2023-05-27T09:15:01;24.01;66.45
62476;DHT22;50739;45.670;11.936;2023-05-27T09:20:05;23.98;66.61
62476;DHT22;50739;45.670;11.936;2023-05-27T09:25:09;23.95;64.87
62476;DHT22;50739;45.670;11.936;2023-05-27T09:30:14;24.14;65.78
62476;DHT22;50739;45.670;11.936;2023-05-27T09:35:17;24.22;67.39
62476;DHT22;50739;45.670;11.936;2023-05-27T09:40:19;24.44;64.57
62476;DHT22;50739;45.670;11.936;2023-05-27T09:45:23;24.29;64.80
62476;DHT22;50739;45.670;11.936;2023-05-27T09:50:25;24.33;65.44
62476;DHT22;50739;45.670;11.936;2023-05-27T09:55:29;24.44;64.07
62476;DHT22;50739;45.670;11.936;2023-05-27T10:00:33;24.53;62.37
62476;DHT22;50739;45.670;11.936;2023-05-27T10:05:35;24.32;62.76
62476;DHT22;50739;45.670;11.936;2023-05-27T10:10:38;24.35;64.27
62476;DHT22;50739;45.670;11.936;2023-05-27T10:15:46;24.55;62.39
62476;DHT22;50739;45.670;11.936;2023-05-27T10:20:50;24.61;59.90
62476;DHT22;50739;45.670;11.936;2023-05-27T10:25:53;24.59;60.17
62476;DHT22;50739;45.670;11.936;2023-05-27T10:31:05;24.66;60.86
62476;DHT22;50739;45.670;11.936;2023-05-27T10:36:09;24.69;56.36
62476;DHT22;50739;45.670;11.936;2023-05-27T10:41:12;24.70;59.20
62476;DHT22;50739;45.670;11.936;2023-05-27T10:46:16;24.92;59.52
62476;DHT22;50739;45.670;11.936;2023-05-27T10:51:19;25.04;60.61
62476;DHT22;50739;45.670;11.936;2023-05-27T10:56:21;24.95;60.28
62476;DHT22;50739;45.670;11.936;2023-05-27T11:01:28;24.80;59.03
62476;DHT22;50739;45.670;11.936;2023-05-27T11:06:32;25.01;59.11
62476;DHT22;50739;45.670;11.936;2023-05-27T11:11:35;25.28;55.70
62476;DHT22;50739;45.670;11.936;2023-05-27T11:16:39;25.03;56.89
62476;DHT22;50739;45.670;11.936;2023-05-27T11:21:44;25.14;58.72
62476;DHT22;50739;45.670;11.936;2023-05-27T11:26:47;25.46;60.18
62476;DHT22;50739;45.670;11.936;2023-05-27T11:31:53;25.72;59.09
62476;DHT22;50739;45.670;11.936;2023-05-27T11:37:01;25.61;57.88
62476;DHT22;50739;45.670;11.936;2023-05-27T11:42:05;25.73;57.26
62476;DHT22;50739;45.670;11.936;2023-05-27T11:47:09;25.76;55.84
62476;DHT22;50739;45.670;11.936;2023-05-27T11:52:12;25.73;56.53
62476;DHT22;50739;45.670;11.936;2023-05-27T11:57:14;25.66;56.64
62476;DHT22;50739;45.670;11.936;2023-05-27T12:02:18;25.73;56.44
62476;DHT22;50739;45.670;11.936;2023-05-27T12:07:22;26.11;55.13
62476;DHT22;50739;45.670;11.936;2023-05-27T12:12:24;26.13;54.76
62476;DHT22;50739;45.670;11.936;2023-05-27T12:17:27;26.00;52.99
62476;DHT22;50739;45.670;11.936;2023-05-27T12:22:30;25.96;54.93
62476;DHT22;50739;45.670;11.936;2023-05-27T12:27:32;25.96;55.22
62476;DHT22;50739;45.670;11.936;2023-05-27T12:32:36;26.37;55.17
62476;DHT22;50739;45.670;11.936;2023-05-27T12:37:39;26.34;54.55
62476;DHT22;50739;45.670;11.936;2023-05-27T12:42:41;26.45;55.69
62476;DHT22;50739;45.670;11.936;2023-05-27T12:47:45;26.73;54.96
62476;DHT22;50739;45.670;11.936;2023-05-27T12:52:48;27.17;55.14
62476;DHT22;50739;45.670;11.936;2023-05-27T12:57:51;27.06;55.89
62476;DHT22;50739;45.670;11.936;2023-05-27T13:02:56;27.06;53.21
62476;DHT22;50739;45.670;11.936;2023-05-27T13:08:00;27.51;54.15
62476;DHT22;50739;45.670;11.936;2023-05-27T13:13:02;27.35;54.60
62476;DHT22;50739;45.670;11.936;2023-05-27T13:18:06;27.44;53.57
62476;DHT22;50739;45.670;11.936;2023-05-27T13:23:10;27.41;54.33
62476;DHT22;50739;45.670;11.936;2023-05-27T13:28:13;27.82;54.22
62476;DHT22;50739;45.670;11.936;2023-05-27T13:33:16;28.03;53.47
62476;DHT22;50739;45.670;11.936;2023-05-27T13:38:19;28.34;52.65
62476;DHT22;50739;45.670;11.936;2023-05-27T13:43:21;28.34;50.74
62476;DHT22;50739;45.670;11.936;2023-05-27T13:48:25;28.28;52.81
62476;DHT22;50739;45.670;11.936;2023-05-27T13:53:27;29.06;50.32
62476;DHT22;50739;45.670;11.936;2023-05-27T13:58:29;28.68;50.73
62476;DHT22;50739;45.670;11.936;2023-05-27T14:03:33;28.16;51.22
62476;DHT22;50739;45.670;11.936;2023-05-27T14:08:36;27.54;50.14
62476;DHT22;50739;45.670;11.936;2023-05-27T14:13:38;27.21;51.56
62476;DHT22;50739;45.670;11.936;2023-05-27T14:18:42;27.15;52.20
62476;DHT22;50739;45.670;11.936;2023-05-27T14:23:45;28.07;51.01
62476;DHT22;50739;45.670;11.936;2023-05-27T14:28:47;28.47;50.26
62476;DHT22;50739;45.670;11.936;2023-05-27T14:33:51;28.39;49.40
62476;DHT22;50739;45.670;11.936;2023-05-27T14:38:53;27.81;52.53
62476;DHT22;50739;45.670;11.936;2023-05-27T14:43:56;27.52;53.09
62476;DHT22;50739;45.670;11.936;2023-05-27T14:49:00;27.79;51.81
62476;DHT22;50739;45.670;11.936;2023-05-27T14:54:02;27.88;53.06
62476;DHT22;50739;45.670;11.936;2023-05-27T14:59:05;28.43;50.38
62476;DHT22;50739;45.670;11.936;2023-05-27T15:04:09;28.21;50.35
62476;DHT22;50739;45.670;11.936;2023-05-27T15:09:11;28.06;50.25
62476;DHT22;50739;45.670;11.936;2023-05-27T15:14:14;28.57;49.29
62476;DHT22;50739;45.670;11.936;2023-05-27T15:19:17;28.45;50.52
62476;DHT22;50739;45.670;11.936;2023-05-27T15:24:20;28.51;50.39
62476;DHT22;50739;45.670;11.936;2023-05-27T15:29:22;28.23;48.88
62476;DHT22;50739;45.670;11.936;2023-05-27T15:34:26;28.24;50.81
62476;DHT22;50739;45.670;11.936;2023-05-27T15:39:29;28.12;49.82
62476;DHT22;50739;45.670;11.936;2023-05-27T15:44:31;27.95;50.00
62476;DHT22;50739;45.670;11.936;2023-05-27T15:49:35;27.78;49.33
62476;DHT22;50739;45.670;11.936;2023-05-27T15:54:37;27.52;49.96
62476;DHT22;50739;45.670;11.936;2023-05-27T15:59:39;27.92;50.00
62476;DHT22;50739;45.670;11.936;2023-05-27T16:04:43;27.57;51.51
62476;DHT22;50739;45.670;11.936;2023-05-27T16:09:46;27.35;51.85
62476;DHT22;50739;45.670;11.936;2023-05-27T16:14:49;27.18;51.78
62476;DHT22;50739;45.670;11.936;2023-05-27T16:19:53;27.10;51.89
62476;DHT22;50739;45.670;11.936;2023-05-27T16:24:55;26.93;52.82
62476;DHT22;50739;45.670;11.936;2023-05-27T16:29:57;26.80;53.85
62476;DHT22;50739;45.670;11.936;2023-05-27T16:35:01;26.83;53.17
62476;DHT22;50739;45.670;11.936;2023-05-27T16:40:05;26.69;52.87
62476;DHT22;50739;45.670;11.936;2023-05-27T16:45:09;26.59;52.79
62476;DHT22;50739;45.670;11.936;2023-05-27T16:50:13;26.52;54.28
62476;DHT22;50739;45.670;11.936;2023-05-27T16:55:15;26.34;55.36
62476;DHT22;50739;45.670;11.936;2023-05-27T17:00:19;26.24;56.11
62476;DHT22;50739;45.670;11.936;2023-05-27T17:05:22;26.22;55.68
62476;DHT22;50739;45.670;11.936;2023-05-27T17:10:25;26.21;56.35
62476;DHT22;50739;45.670;11.936;2023-05-27T17:15:27;26.18;56.55
62476;DHT22;50739;45.670;11.936;2023-05-27T17:20:31;26.18;56.42
62476;DHT22;50739;45.670;11.936;2023-05-27T17:25:33;26.14;56.02
62476;DHT22;50739;45.670;11.936;2023-05-27T17:30:35;26.04;55.56
62476;DHT22;50739;45.670;11.936;2023-05-27T17:35:40;25.96;55.86
62476;DHT22;50739;45.670;11.936;2023-05-27T17:40:43;26.01;55.62
62476;DHT22;50739;45.670;11.936;2023-05-27T17:45:45;25.94;56.18
62476;DHT22;50739;45.670;11.936;2023-05-27T17:50:49;25.98;56.66
62476;DHT22;50739;45.670;11.936;2023-05-27T17:55:53;25.94;56.70
62476;DHT22;50739;45.670;11.936;2023-05-27T18:00:56;25.89;55.75
62476;DHT22;50739;45.670;11.936;2023-05-27T18:06:01;25.90;57.29
62476;DHT22;50739;45.670;11.936;2023-05-27T18:11:04;26.02;56.20
62476;DHT22;50739;45.670;11.936;2023-05-27T18:16:06;25.80;57.42
62476;DHT22;50739;45.670;11.936;2023-05-27T18:21:10;25.79;58.27
62476;DHT22;50739;45.670;11.936;2023-05-27T18:26:13;25.56;59.43
62476;DHT22;50739;45.670;11.936;2023-05-27T18:31:15;25.56;60.41
62476;DHT22;50739;45.670;11.936;2023-05-27T18:36:18;25.42;60.15
62476;DHT22;50739;45.670;11.936;2023-05-27T18:41:21;25.32;60.40
62476;DHT22;50739;45.670;11.936;2023-05-27T18:46:23;25.35;61.22
62476;DHT22;50739;45.670;11.936;2023-05-27T18:51:27;25.31;61.33
62476;DHT22;50739;45.670;11.936;2023-05-27T18:56:29;25.26;61.92
62476;DHT22;50739;45.670;11.936;2023-05-27T19:01:32;25.15;61.56
62476;DHT22;50739;45.670;11.936;2023-05-27T19:06:38;25.10;62.69
62476;DHT22;50739;45.670;11.936;2023-05-27T19:11:40;24.98;62.07
62476;DHT22;50739;45.670;11.936;2023-05-27T19:16:43;24.90;62.33
62476;DHT22;50739;45.670;11.936;2023-05-27T19:21:46;24.97;62.60
62476;DHT22;50739;45.670;11.936;2023-05-27T19:26:49;24.80;63.43
62476;DHT22;50739;45.670;11.936;2023-05-27T19:31:51;24.73;63.70
62476;DHT22;50739;45.670;11.936;2023-05-27T19:36:55;24.69;64.12
62476;DHT22;50739;45.670;11.936;2023-05-27T19:41:57;24.50;64.85
62476;DHT22;50739;45.670;11.936;2023-05-27T19:47:00;24.57;65.23
62476;DHT22;50739;45.670;11.936;2023-05-27T19:52:04;24.56;65.52
62476;DHT22;50739;45.670;11.936;2023-05-27T19:57:06;24.57;65.52
62476;DHT22;50739;45.670;11.936;2023-05-27T20:02:09;24.48;66.57
62476;DHT22;50739;45.670;11.936;2023-05-27T20:07:13;24.28;67.38
62476;DHT22;50739;45.670;11.936;2023-05-27T20:12:15;24.23;68.07
62476;DHT22;50739;45.670;11.936;2023-05-27T20:17:17;24.15;69.15
62476;DHT22;50739;45.670;11.936;2023-05-27T20:22:21;24.14;69.28
62476;DHT22;50739;45.670;11.936;2023-05-27T20:27:23;24.01;69.61
62476;DHT22;50739;45.670;11.936;2023-05-27T20:32:26;23.94;70.09
62476;DHT22;50739;45.670;11.936;2023-05-27T20:37:30;23.94;70.28
62476;DHT22;50739;45.670;11.936;2023-05-27T20:42:32;24.00;69.92
62476;DHT22;50739;45.670;11.936;2023-05-27T20:47:35;23.89;70.56
62476;DHT22;50739;45.670;11.936;2023-05-27T20:52:38;23.82;71.17
62476;DHT22;50739;45.670;11.936;2023-05-27T20:57:41;23.81;70.95
62476;DHT22;50739;45.670;11.936;2023-05-27T21:02:43;23.79;71.18
62476;DHT22;50739;45.670;11.936;2023-05-27T21:07:50;23.63;71.38
62476;DHT22;50739;45.670;11.936;2023-05-27T21:12:52;23.57;71.45
62476;DHT22;50739;45.670;11.936;2023-05-27T21:17:55;23.51;71.83
62476;DHT22;50739;45.670;11.936;2023-05-27T21:22:58;23.51;71.51
62476;DHT22;50739;45.670;11.936;2023-05-27T21:28:01;23.54;70.91
62476;DHT22;50739;45.670;11.936;2023-05-27T21:33:03;23.50;70.19
62476;DHT22;50739;45.670;11.936;2023-05-27T21:38:07;23.46;69.88
62476;DHT22;50739;45.670;11.936;2023-05-27T21:43:10;23.36;70.07
62476;DHT22;50739;45.670;11.936;2023-05-27T21:48:13;23.40;69.71
62476;DHT22;50739;45.670;11.936;2023-05-27T21:53:17;23.27;70.02
62476;DHT22;50739;45.670;11.936;2023-05-27T21:58:19;23.15;70.14
62476;DHT22;50739;45.670;11.936;2023-05-27T22:03:22;23.09;70.11
62476;DHT22;50739;45.670;11.936;2023-05-27T22:08:25;23.09;70.17
62476;DHT22;50739;45.670;11.936;2023-05-27T22:13:30;23.02;69.85
62476;DHT22;50739;45.670;11.936;2023-05-27T22:18:32;22.99;69.50
62476;DHT22;50739;45.670;11.936;2023-05-27T22:23:36;22.98;69.41
62476;DHT22;50739;45.670;11.936;2023-05-27T22:28:38;22.91;69.39
62476;DHT22;50739;45.670;11.936;2023-05-27T22:33:40;22.91;68.27
62476;DHT22;50739;45.670;11.936;2023-05-27T22:38:44;23.05;67.43
62476;DHT22;50739;45.670;11.936;2023-05-27T22:43:47;23.11;66.64
62476;DHT22;50739;45.670;11.936;2023-05-27T22:48:49;23.06;67.24
62476;DHT22;50739;45.670;11.936;2023-05-27T22:53:53;23.06;67.52
62476;DHT22;50739;45.670;11.936;2023-05-27T22:58:55;23.08;67.85
62476;DHT22;50739;45.670;11.936;2023-05-27T23:03:57;23.15;67.53
62476;DHT22;50739;45.670;11.936;2023-05-27T23:09:01;23.01;67.72
62476;DHT22;50739;45.670;11.936;2023-05-27T23:14:03;22.91;68.06
62476;DHT22;50739;45.670;11.936;2023-05-27T23:19:06;22.83;67.69
62476;DHT22;50739;45.670;11.936;2023-05-27T23:24:09;22.87;66.55
62476;DHT22;50739;45.670;11.936;2023-05-27T23:29:12;22.91;65.72
62476;DHT22;50739;45.670;11.936;2023-05-27T23:34:14;22.84;65.29
62476;DHT22;50739;45.670;11.936;2023-05-27T23:39:18;22.69;63.62
62476;DHT22;50739;45.670;11.936;2023-05-27T23:44:20;22.83;61.84
62476;DHT22;50739;45.670;11.936;2023-05-27T23:49:23;22.81;61.43
62476;DHT22;50739;45.670;11.936;2023-05-27T23:54:26;22.85;61.17
62476;DHT22;50739;45.670;11.936;2023-05-27T23:59:29;22.81;60.76
